< < Back
Terminal Aerodrome Forecast


Current Version              Previous Versions:   1  2  3  4  5  6  7  8  9  

Terminal Aerodrome Forecast

511
FTUS42 KFFC 261121
TAFFTY
TAF
KFTY 261121Z 2612/2712 08008KT P6SM SCT019
     FM261400 09010KT P6SM SCT025 SCT120
     FM261600 10008KT P6SM SCT040
     FM270200 14003KT P6SM SCT070 BKN250=

Latest METAR

592
SAUS70 KWBC 261500
MTRFTY
METAR KFTY 261453Z VRB06KT 10SM CLR 29/21 A3018 RMK AO2 SLP207 T02940206
50003


USA.gov is the U.S. government's official web portal to all federal, state and local government web resources and services.